Time;durP1;ratioP1;P1;durP2;ratioP2;P2;SDS_P1;SDS_P2;PMS_P1;PMS_P2;Temp;Humidity;BMP_temperature;BMP_pressure;BME280_temperature;BME280_humidity;BME280_pressure;Samples;Min_cycle;Max_cycle;Signal;HPM_P1;HPM_P2
2022/09/08 00:02:08;;;;;;;23.47;21.83;;;20.70;86.00;;;;;;5107315;27;20477;-70
2022/09/08 00:04:35;;;;;;;20.87;19.53;;;20.70;85.90;;;;;;5109898;28;20467;-70
2022/09/08 00:07:02;;;;;;;21.20;20.07;;;20.70;85.80;;;;;;5105215;27;20456;-71
2022/09/08 00:09:30;;;;;;;19.83;18.73;;;20.70;86.10;;;;;;5110467;28;20451;-70
2022/09/08 00:11:57;;;;;;;19.33;18.43;;;20.70;86.60;;;;;;5102228;28;20593;-71
2022/09/08 00:14:24;;;;;;;20.53;19.10;;;20.60;87.20;;;;;;5108430;28;20558;-70
2022/09/08 00:16:51;;;;;;;19.47;18.57;;;20.50;87.30;;;;;;5106110;28;20452;-70
2022/09/08 00:19:19;;;;;;;19.53;18.53;;;20.40;87.80;;;;;;5101569;28;20473;-70
2022/09/08 00:21:46;;;;;;;19.87;18.77;;;20.40;87.90;;;;;;5107445;27;20496;-71
2022/09/08 00:24:13;;;;;;;20.50;19.60;;;20.40;88.00;;;;;;5107633;27;20549;-70
2022/09/08 00:26:40;;;;;;;19.77;18.73;;;20.40;87.70;;;;;;5110474;27;20457;-71
2022/09/08 00:29:07;;;;;;;20.00;19.00;;;20.40;87.70;;;;;;5101624;28;20468;-70
2022/09/08 00:31:38;;;;;;;19.93;18.80;;;20.40;87.90;;;;;;5105835;27;20485;-71
2022/09/08 00:34:04;;;;;;;19.30;18.40;;;20.40;88.00;;;;;;5097778;27;20460;-71
2022/09/08 00:36:33;;;;;;;19.53;18.63;;;20.40;88.10;;;;;;5096966;27;20458;-72
2022/09/08 00:39:01;;;;;;;18.70;17.70;;;20.30;88.40;;;;;;5106741;27;20555;-72
2022/09/08 00:41:29;;;;;;;19.03;17.93;;;20.30;88.20;;;;;;5104520;27;21153;-72
2022/09/08 00:44:00;;;;;;;19.23;18.10;;;20.30;88.20;;;;;;5100400;28;20536;-72
2022/09/08 00:46:32;;;;;;;18.70;17.73;;;20.30;88.40;;;;;;5105661;27;20507;-73
2022/09/08 00:49:04;;;;;;;18.87;17.87;;;20.20;88.90;;;;;;5099363;28;20453;-72
2022/09/08 00:51:35;;;;;;;18.60;17.60;;;20.20;88.70;;;;;;5097012;27;21006;-72
2022/09/08 00:54:02;;;;;;;20.63;19.00;;;20.20;89.20;;;;;;5104476;27;20534;-71
2022/09/08 00:56:31;;;;;;;18.50;17.50;;;20.30;89.50;;;;;;5098353;27;21009;-73
2022/09/08 00:58:59;;;;;;;18.20;17.13;;;20.20;89.80;;;;;;5110105;27;20460;-72
2022/09/08 01:01:26;;;;;;;17.67;16.73;;;20.30;89.40;;;;;;5092425;28;20460;-72
2022/09/08 01:03:53;;;;;;;18.27;17.07;;;20.30;89.70;;;;;;5106462;27;20960;-72
2022/09/08 01:14:55;;;;;;;19.07;17.70;;;20.30;89.60;;;;;;5102157;27;20487;-72
2022/09/08 01:17:26;;;;;;;20.00;18.80;;;20.30;89.60;;;;;;5104335;28;20455;-73
2022/09/08 01:19:53;;;;;;;19.00;17.90;;;20.30;89.40;;;;;;5105822;27;20453;-72
2022/09/08 01:22:28;;;;;;;19.50;18.40;;;20.30;89.60;;;;;;5107443;28;21008;-73
2022/09/08 01:25:07;;;;;;;18.60;17.60;;;20.20;89.70;;;;;;5106203;28;20660;-72
2022/09/08 01:27:38;;;;;;;18.23;17.13;;;20.20;89.90;;;;;;5107643;28;20475;-72
2022/09/08 01:30:09;;;;;;;17.50;16.40;;;20.20;89.90;;;;;;5106463;27;22156;-72
2022/09/08 01:32:38;;;;;;;17.27;16.20;;;20.10;90.20;;;;;;5108243;28;20807;-72
2022/09/08 01:35:06;;;;;;;18.53;17.50;;;20.10;90.60;;;;;;5106290;27;22527;-72
2022/09/08 01:37:33;;;;;;;18.27;17.20;;;20.10;90.70;;;;;;5096877;27;20461;-72
2022/09/08 01:40:00;;;;;;;17.97;16.77;;;20.00;91.10;;;;;;5105326;27;21012;-71
2022/09/08 01:42:26;;;;;;;18.33;17.33;;;20.00;91.20;;;;;;5098355;28;20483;-70
2022/09/08 01:44:55;;;;;;;16.73;15.93;;;20.00;91.40;;;;;;5103916;28;20465;-70
2022/09/08 01:47:22;;;;;;;16.47;15.47;;;20.00;91.50;;;;;;5103245;28;20453;-71
2022/09/08 01:49:49;;;;;;;16.90;15.73;;;20.00;91.30;;;;;;5105593;27;20453;-70
2022/09/08 01:52:15;;;;;;;16.63;15.73;;;20.00;91.20;;;;;;5107313;28;20472;-71
2022/09/08 01:54:42;;;;;;;16.10;15.27;;;19.90;91.40;;;;;;5108208;28;20989;-71
2022/09/08 01:57:09;;;;;;;17.57;16.60;;;19.90;91.50;;;;;;5105251;28;20456;-71
2022/09/08 01:59:36;;;;;;;17.10;16.00;;;19.90;91.50;;;;;;5107004;28;20455;-70
2022/09/08 02:02:04;;;;;;;16.63;15.80;;;19.90;91.70;;;;;;5102529;28;20472;-70
2022/09/08 02:04:31;;;;;;;17.63;16.63;;;19.90;91.80;;;;;;5108131;28;20487;-71
2022/09/08 02:06:58;;;;;;;17.97;16.87;;;19.90;92.00;;;;;;5096068;28;20863;-71
2022/09/08 02:09:25;;;;;;;16.67;15.57;;;19.90;91.90;;;;;;5105381;28;20453;-70
2022/09/08 02:11:52;;;;;;;17.00;16.10;;;19.90;91.80;;;;;;5106702;28;20485;-71
2022/09/08 02:14:19;;;;;;;16.27;15.27;;;19.80;92.10;;;;;;5108738;28;20957;-70
2022/09/08 02:16:46;;;;;;;15.67;14.77;;;19.80;92.10;;;;;;5106767;27;20464;-70
2022/09/08 02:19:14;;;;;;;16.57;15.57;;;19.80;91.60;;;;;;5100641;28;20562;-71
2022/09/08 02:21:41;;;;;;;27.43;25.97;;;19.80;91.30;;;;;;5101114;28;20483;-70
2022/09/08 02:24:08;;;;;;;32.57;31.07;;;19.90;90.20;;;;;;5102039;28;20456;-71
2022/09/08 02:26:35;;;;;;;22.00;20.90;;;19.80;90.00;;;;;;5104807;28;20444;-70
2022/09/08 02:29:03;;;;;;;17.00;16.20;;;19.90;89.00;;;;;;5107154;28;20474;-70
2022/09/08 02:31:30;;;;;;;16.73;15.83;;;19.90;88.60;;;;;;5105078;28;20779;-70
2022/09/08 02:33:57;;;;;;;17.33;16.50;;;19.90;88.20;;;;;;5101835;28;20452;-71
2022/09/08 02:36:25;;;;;;;17.87;16.87;;;20.00;87.80;;;;;;5101042;28;21261;-71
2022/09/08 02:38:54;;;;;;;15.90;15.20;;;20.00;87.40;;;;;;5108290;28;20468;-70
2022/09/08 02:41:21;;;;;;;16.10;15.40;;;19.90;87.40;;;;;;5099659;28;20481;-70
2022/09/08 02:43:48;;;;;;;25.47;24.30;;;19.90;87.00;;;;;;5104220;28;20789;-70
2022/09/08 02:46:15;;;;;;;16.07;15.17;;;19.90;87.10;;;;;;5105790;28;21102;-70
2022/09/08 02:48:42;;;;;;;20.43;19.50;;;19.80;87.10;;;;;;5098798;28;20826;-70
2022/09/08 02:51:11;;;;;;;16.70;15.90;;;19.80;87.30;;;;;;5100708;28;21055;-71
2022/09/08 02:53:41;;;;;;;22.17;21.17;;;19.80;87.40;;;;;;5102988;28;20468;-70
2022/09/08 02:56:09;;;;;;;16.87;16.17;;;19.70;87.50;;;;;;5105842;28;20477;-71
2022/09/08 02:58:36;;;;;;;18.03;17.13;;;19.60;87.80;;;;;;5101783;28;20506;-71
2022/09/08 03:01:04;;;;;;;16.63;15.83;;;19.60;87.80;;;;;;5106985;28;20483;-71
2022/09/08 03:03:31;;;;;;;21.83;20.73;;;19.60;88.10;;;;;;5107495;27;20484;-70
2022/09/08 03:05:58;;;;;;;21.73;20.73;;;19.60;88.40;;;;;;5101470;28;20455;-71
2022/09/08 03:08:25;;;;;;;26.40;24.80;;;19.60;88.10;;;;;;5107499;27;20452;-71
2022/09/08 03:10:54;;;;;;;18.30;17.50;;;19.60;88.10;;;;;;5110793;28;21005;-72
2022/09/08 03:13:21;;;;;;;39.53;37.63;;;19.60;88.10;;;;;;5109591;27;20503;-72
2022/09/08 03:15:48;;;;;;;18.07;17.27;;;19.60;88.10;;;;;;5109977;27;20822;-72
2022/09/08 03:18:14;;;;;;;25.27;24.07;;;19.60;88.10;;;;;;5110821;28;20931;-72
2022/09/08 03:20:43;;;;;;;18.10;17.20;;;19.50;88.00;;;;;;5110083;27;20457;-72
2022/09/08 03:23:16;;;;;;;20.20;19.10;;;19.50;88.20;;;;;;5112300;27;20508;-72
2022/09/08 03:25:44;;;;;;;25.50;24.30;;;19.50;88.30;;;;;;5102473;27;20457;-72
2022/09/08 03:28:17;;;;;;;21.90;20.90;;;19.60;88.20;;;;;;5103467;28;20509;-72
2022/09/08 03:30:44;;;;;;;26.03;24.87;;;19.50;88.10;;;;;;5099012;27;20459;-72
2022/09/08 03:33:11;;;;;;;19.03;18.23;;;19.60;87.70;;;;;;5111915;28;21028;-72
2022/09/08 03:35:38;;;;;;;38.17;36.53;;;19.60;87.70;;;;;;5102960;28;20554;-72
2022/09/08 03:38:06;;;;;;;17.43;16.57;;;19.50;87.70;;;;;;5110613;28;20506;-72
2022/09/08 03:40:34;;;;;;;30.47;28.93;;;19.50;88.20;;;;;;5095906;27;20450;-72
2022/09/08 03:43:01;;;;;;;16.40;15.70;;;19.50;88.10;;;;;;5110127;28;20472;-72
2022/09/08 03:45:29;;;;;;;19.90;19.10;;;19.50;88.00;;;;;;5108604;27;20457;-72
2022/09/08 03:47:56;;;;;;;19.07;18.00;;;19.50;87.80;;;;;;5102938;28;21358;-72
2022/09/08 03:50:24;;;;;;;36.17;34.50;;;19.40;87.60;;;;;;5107017;27;20457;-72
2022/09/08 03:52:51;;;;;;;28.40;27.13;;;19.50;87.70;;;;;;5110624;28;20492;-72
2022/09/08 03:55:19;;;;;;;22.77;21.73;;;19.50;87.80;;;;;;5104593;28;20472;-72
2022/09/08 03:57:46;;;;;;;27.10;25.90;;;19.40;87.90;;;;;;5102423;28;20460;-72
2022/09/08 04:00:13;;;;;;;17.50;16.70;;;19.40;87.90;;;;;;5103192;27;20453;-72
2022/09/08 04:02:42;;;;;;;32.77;31.40;;;19.30;88.00;;;;;;5105078;28;20556;-70
2022/09/08 04:05:10;;;;;;;17.23;16.53;;;19.40;87.80;;;;;;5107193;28;20862;-72
2022/09/08 04:07:39;;;;;;;37.60;36.00;;;19.40;87.60;;;;;;5105471;28;20472;-72
2022/09/08 04:10:07;;;;;;;17.60;16.60;;;19.30;87.90;;;;;;5106203;27;21731;-72
2022/09/08 04:12:35;;;;;;;25.93;24.87;;;19.30;87.60;;;;;;5103044;27;21075;-72
2022/09/08 04:15:02;;;;;;;16.80;16.00;;;19.30;87.90;;;;;;5101165;27;20460;-72
2022/09/08 04:17:29;;;;;;;16.63;15.93;;;19.30;88.00;;;;;;5105085;27;20548;-72
2022/09/08 04:19:57;;;;;;;29.60;28.10;;;19.20;88.40;;;;;;5108661;27;20463;-72
2022/09/08 04:22:24;;;;;;;16.80;16.10;;;19.20;88.70;;;;;;5103863;27;20465;-72
2022/09/08 04:24:52;;;;;;;15.00;14.40;;;19.20;88.90;;;;;;5107033;27;20456;-72
2022/09/08 04:27:21;;;;;;;21.07;20.23;;;19.20;88.50;;;;;;5100765;27;20465;-72
2022/09/08 04:29:48;;;;;;;31.70;30.30;;;19.20;88.60;;;;;;5097351;28;20456;-72
2022/09/08 04:32:15;;;;;;;16.67;15.98;;;19.30;88.10;;;;;;5101980;27;20485;-75
2022/09/08 04:34:42;;;;;;;20.80;19.93;;;19.30;87.90;;;;;;5101608;28;20195;-72
2022/09/08 04:37:10;;;;;;;22.60;21.60;;;19.20;87.90;;;;;;5102299;28;20476;-72
2022/09/08 04:39:37;;;;;;;34.37;33.07;;;19.30;87.70;;;;;;5107202;27;21086;-72
2022/09/08 04:42:05;;;;;;;26.47;25.37;;;19.20;87.90;;;;;;5105527;27;20484;-72
2022/09/08 04:44:31;;;;;;;22.15;21.17;;;19.10;88.50;;;;;;5097434;27;20937;-72
2022/09/08 04:46:58;;;;;;;21.57;20.43;;;19.20;87.80;;;;;;5102328;28;20206;-72
2022/09/08 04:49:25;;;;;;;20.83;20.00;;;19.10;88.50;;;;;;5110921;28;20452;-72
2022/09/08 04:51:52;;;;;;;24.53;23.43;;;19.10;88.40;;;;;;5106757;28;20484;-72
2022/09/08 04:54:22;;;;;;;16.53;15.83;;;19.00;88.60;;;;;;5108746;28;20539;-73
2022/09/08 04:56:49;;;;;;;29.03;27.73;;;19.10;88.40;;;;;;5096476;28;20495;-72
2022/09/08 04:59:17;;;;;;;14.90;14.30;;;19.00;88.50;;;;;;5107008;28;20461;-70
2022/09/08 05:01:43;;;;;;;15.90;15.17;;;19.00;89.00;;;;;;5098628;27;20474;-70
2022/09/08 05:04:11;;;;;;;20.87;19.97;;;19.00;88.90;;;;;;5096959;28;20450;-71
2022/09/08 05:06:38;;;;;;;15.17;14.50;;;19.00;88.70;;;;;;5100282;28;20453;-71
2022/09/08 05:09:06;;;;;;;14.10;13.43;;;19.00;88.70;;;;;;5109975;28;20455;-70
2022/09/08 05:11:35;;;;;;;34.73;33.33;;;19.00;88.70;;;;;;5101559;27;20482;-72
2022/09/08 05:14:03;;;;;;;15.20;14.50;;;19.00;88.70;;;;;;5109869;28;20456;-69
2022/09/08 05:16:31;;;;;;;16.17;15.47;;;19.00;88.90;;;;;;5096909;27;20988;-72
2022/09/08 05:19:00;;;;;;;18.80;18.00;;;19.00;89.00;;;;;;5111462;27;20460;-73
2022/09/08 05:21:32;;;;;;;14.70;14.10;;;18.90;89.00;;;;;;5101671;27;20461;-72
2022/09/08 05:24:00;;;;;;;16.20;15.40;;;19.00;89.00;;;;;;5107495;27;20459;-73
2022/09/08 05:26:30;;;;;;;14.37;13.77;;;19.00;88.70;;;;;;5107144;27;20485;-78
2022/09/08 05:28:58;;;;;;;14.05;13.45;;;19.10;88.40;;;;;;5107624;27;20465;-69
2022/09/08 05:31:27;;;;;;;24.93;23.83;;;19.20;88.30;;;;;;5101665;28;20195;-70
2022/09/08 05:33:56;;;;;;;21.50;20.50;;;19.10;88.50;;;;;;5109324;28;20457;-71
2022/09/08 05:36:25;;;;;;;28.97;27.60;;;19.10;88.80;;;;;;5115354;27;20888;-71
2022/09/08 05:38:52;;;;;;;15.77;15.13;;;19.00;88.90;;;;;;5105138;28;20471;-71
2022/09/08 05:41:19;;;;;;;31.37;30.07;;;19.00;88.70;;;;;;5102912;28;20464;-72
2022/09/08 05:43:46;;;;;;;26.33;24.93;;;19.10;88.80;;;;;;5104739;28;20449;-72
2022/09/08 05:46:14;;;;;;;26.07;24.87;;;19.10;88.60;;;;;;5104095;27;20468;-69
2022/09/08 05:48:41;;;;;;;15.10;14.50;;;19.10;88.50;;;;;;5102915;27;20449;-69
2022/09/08 05:51:14;;;;;;;16.43;15.60;;;19.10;88.40;;;;;;5102799;28;20467;-70
2022/09/08 05:53:40;;;;;;;20.80;19.73;;;19.00;88.80;;;;;;5106342;28;20510;-72
2022/09/08 05:56:11;;;;;;;15.90;15.10;;;19.00;89.10;;;;;;5097957;27;20477;-71
2022/09/08 05:58:39;;;;;;;15.07;14.27;;;19.10;88.90;;;;;;5097216;27;20549;-73
2022/09/08 06:01:09;;;;;;;33.73;32.40;;;19.00;88.90;;;;;;5095189;28;20484;-73
2022/09/08 06:03:38;;;;;;;27.00;25.90;;;19.00;89.00;;;;;;5107333;27;20957;-71
2022/09/08 06:06:07;;;;;;;25.00;23.83;;;19.00;89.00;;;;;;5105516;28;20446;-71
2022/09/08 06:08:35;;;;;;;15.80;15.10;;;19.10;88.40;;;;;;5106194;28;20476;-71
2022/09/08 06:11:02;;;;;;;21.90;20.80;;;19.10;88.00;;;;;;5100216;28;20460;-72
2022/09/08 06:13:31;;;;;;;23.23;22.07;;;19.10;87.40;;;;;;5092157;28;20473;-71
2022/09/08 06:16:03;;;;;;;20.80;19.93;;;19.10;87.80;;;;;;5101759;28;20856;-71
2022/09/08 06:18:32;;;;;;;18.83;17.93;;;19.00;87.50;;;;;;5096611;28;20474;-71
2022/09/08 06:27:51;;;;;;;29.37;28.07;;;19.00;87.80;;;;;;5101770;28;20427;-70
2022/09/08 06:30:26;;;;;;;19.17;18.27;;;19.00;87.90;;;;;;5097489;28;20483;-75
2022/09/08 06:32:58;;;;;;;27.07;25.77;;;19.00;86.80;;;;;;5098032;28;20476;-75
2022/09/08 06:35:30;;;;;;;22.73;21.70;;;19.00;87.10;;;;;;5107671;27;20456;-74
2022/09/08 06:38:00;;;;;;;21.30;20.40;;;19.10;86.80;;;;;;5107873;28;20942;-76
2022/09/08 06:40:31;;;;;;;17.77;17.00;;;19.10;86.40;;;;;;5102305;27;20949;-76
2022/09/08 06:43:05;;;;;;;35.17;33.80;;;19.20;87.10;;;;;;5096409;28;20467;-73
2022/09/08 06:45:36;;;;;;;23.40;22.40;;;19.20;85.70;;;;;;5096215;27;20461;-73
2022/09/08 06:48:24;;;;;;;24.97;23.60;;;19.20;85.30;;;;;;5105116;28;20448;-74
2022/09/08 06:51:08;;;;;;;25.00;24.00;;;19.20;85.50;;;;;;5108817;28;20468;-76
2022/09/08 06:53:39;;;;;;;21.13;20.20;;;19.10;85.40;;;;;;5100730;27;20529;-72
2022/09/08 06:56:20;;;;;;;20.57;19.67;;;19.10;84.90;;;;;;5097417;28;20485;-74
2022/09/08 06:58:48;;;;;;;36.23;34.50;;;19.10;84.60;;;;;;5100855;28;20460;-74
2022/09/08 07:01:21;;;;;;;41.17;39.57;;;19.10;84.60;;;;;;5098034;27;20457;-75
2022/09/08 07:04:10;;;;;;;21.77;20.77;;;19.20;84.40;;;;;;5099181;28;20958;-72
2022/09/08 07:06:44;;;;;;;24.40;23.30;;;19.20;84.30;;;;;;5107788;28;21604;-71
2022/09/08 07:09:16;;;;;;;34.30;32.73;;;19.30;83.60;;;;;;5100332;28;20456;-72
2022/09/08 07:11:57;;;;;;;25.87;24.67;;;19.40;82.80;;;;;;5107308;27;20492;-72
2022/09/08 07:14:40;;;;;;;21.80;20.70;;;19.30;82.50;;;;;;5110760;27;20452;-71
2022/09/08 07:17:18;;;;;;;24.70;23.67;;;19.40;82.40;;;;;;5106428;28;20473;-75
2022/09/08 07:19:49;;;;;;;43.73;41.93;;;19.40;82.00;;;;;;5109425;28;20456;-75
2022/09/08 07:22:27;;;;;;;20.33;19.53;;;19.50;82.20;;;;;;5110092;27;20496;-74
2022/09/08 07:25:03;;;;;;;28.33;27.13;;;19.50;81.90;;;;;;5098719;27;20457;-73
2022/09/08 07:27:31;;;;;;;40.47;38.77;;;19.50;81.40;;;;;;5112206;28;20534;-72
2022/09/08 07:30:04;;;;;;;43.33;41.43;;;19.60;81.40;;;;;;5100131;27;20465;-71
2022/09/08 07:32:33;;;;;;;25.23;24.17;;;19.80;81.40;;;;;;5102179;27;20477;-73
2022/09/08 07:35:04;;;;;;;22.27;21.27;;;19.90;80.10;;;;;;5108096;27;20536;-72
2022/09/08 07:37:42;;;;;;;30.27;28.97;;;20.00;80.20;;;;;;5106553;28;20475;-71
2022/09/08 07:40:17;;;;;;;26.70;25.50;;;20.30;79.80;;;;;;5092118;28;20453;-71
2022/09/08 07:42:49;;;;;;;23.70;22.60;;;20.30;79.40;;;;;;5098475;27;20483;-72
2022/09/08 07:45:18;;;;;;;28.63;27.43;;;20.50;79.30;;;;;;5102145;28;20461;-72
2022/09/08 07:47:58;;;;;;;27.17;25.93;;;20.70;78.00;;;;;;5110431;27;20460;-71
2022/09/08 07:53:24;;;;;;;26.37;25.17;;;20.90;76.80;;;;;;5109750;27;20920;-71
2022/09/08 07:55:52;;;;;;;38.63;37.00;;;21.00;75.40;;;;;;5096856;28;20457;-72
2022/09/08 07:58:25;;;;;;;27.80;26.63;;;21.10;75.40;;;;;;5098467;27;20591;-71
2022/09/08 08:00:59;;;;;;;45.37;43.37;;;21.20;74.80;;;;;;5107994;28;20471;-72
2022/09/08 08:03:41;;;;;;;34.07;32.47;;;21.30;74.20;;;;;;5102879;28;20524;-74
2022/09/08 08:06:15;;;;;;;44.77;42.67;;;21.30;74.30;;;;;;5111577;27;20526;-73
2022/09/08 08:08:53;;;;;;;42.13;40.13;;;21.30;74.20;;;;;;5109278;27;20517;-72
2022/09/08 08:11:29;;;;;;;24.77;23.67;;;21.20;73.80;;;;;;5105413;27;21218;-73
2022/09/08 08:14:11;;;;;;;29.10;27.80;;;21.10;73.90;;;;;;5099495;28;20799;-72
2022/09/08 08:16:55;;;;;;;23.80;22.80;;;21.10;73.90;;;;;;5108315;27;20461;-74
2022/09/08 08:19:47;;;;;;;46.33;44.43;;;21.10;73.10;;;;;;5105329;27;20951;-75
2022/09/08 08:22:19;;;;;;;27.00;25.80;;;20.90;73.40;;;;;;5105471;28;21015;-74
2022/09/08 08:24:53;;;;;;;27.07;25.77;;;20.80;74.30;;;;;;5107187;27;20463;-70
2022/09/08 08:27:28;;;;;;;28.87;27.57;;;20.80;74.60;;;;;;5105452;28;20482;-70
2022/09/08 08:30:15;;;;;;;25.40;24.30;;;21.00;74.00;;;;;;5107673;28;21004;-70
2022/09/08 08:32:49;;;;;;;35.80;33.90;;;21.10;73.60;;;;;;5104590;28;20579;-70
2022/09/08 08:35:23;;;;;;;42.00;40.00;;;21.20;72.70;;;;;;5104484;27;20462;-70
2022/09/08 08:37:53;;;;;;;28.87;27.50;;;21.30;72.50;;;;;;5109051;28;20472;-69
2022/09/08 08:40:31;;;;;;;26.90;25.60;;;21.30;72.00;;;;;;5101419;27;20460;-70
2022/09/08 08:43:27;;;;;;;39.77;37.97;;;21.40;71.30;;;;;;5104298;28;20483;-72
2022/09/08 08:46:10;;;;;;;46.27;44.07;;;21.30;70.90;;;;;;5098154;27;20449;-72
2022/09/08 08:48:59;;;;;;;35.00;33.50;;;21.30;71.00;;;;;;5102543;27;20516;-72
2022/09/08 08:51:45;;;;;;;39.27;37.47;;;21.40;71.30;;;;;;5104482;28;20475;-72
2022/09/08 08:54:28;;;;;;;29.07;27.83;;;21.60;70.40;;;;;;5105746;28;20456;-73
2022/09/08 08:57:22;;;;;;;32.00;30.70;;;21.80;70.20;;;;;;5104387;27;20479;-72
2022/09/08 09:00:05;;;;;;;32.07;30.67;;;22.30;69.00;;;;;;5103966;28;21017;-71
2022/09/08 09:03:00;;;;;;;34.70;33.27;;;22.60;67.60;;;;;;5106120;28;20871;-75
2022/09/08 09:05:51;;;;;;;30.53;29.23;;;23.00;65.60;;;;;;5106702;28;20472;-71
2022/09/08 09:08:59;;;;;;;33.03;31.73;;;23.00;65.40;;;;;;5101373;28;20984;-74
2022/09/08 09:11:52;;;;;;;40.87;39.07;;;23.20;65.20;;;;;;5124835;27;20448;-71
2022/09/08 09:14:45;;;;;;;31.67;30.37;;;23.40;64.90;;;;;;5097539;28;20455;-71
2022/09/08 09:17:32;;;;;;;43.10;40.60;;;23.50;64.90;;;;;;5109050;28;20512;-71
2022/09/08 09:20:37;;;;;;;33.50;32.10;;;23.60;63.90;;;;;;5105129;28;20471;-71
2022/09/08 09:23:14;;;;;;;34.70;33.20;;;23.50;64.40;;;;;;5103627;28;20479;-72
2022/09/08 09:25:52;;;;;;;43.93;41.93;;;23.20;64.20;;;;;;5106467;27;20482;-72
2022/09/08 09:28:55;;;;;;;39.83;37.90;;;22.70;65.30;;;;;;5103686;28;20456;-72
2022/09/08 09:32:05;;;;;;;45.07;42.77;;;22.30;66.70;;;;;;5041856;28;20454;-71
2022/09/08 09:35:13;;;;;;;30.20;29.00;;;21.80;67.40;;;;;;5034831;28;20470;-73
2022/09/08 09:38:15;;;;;;;38.97;37.13;;;21.30;68.40;;;;;;5104684;27;20484;-73
2022/09/08 09:40:56;;;;;;;42.90;40.80;;;21.20;68.90;;;;;;5094131;28;20938;-75
2022/09/08 09:43:47;;;;;;;35.73;34.13;;;21.30;68.80;;;;;;5096533;28;20499;-75
2022/09/08 09:46:41;;;;;;;38.57;36.97;;;21.40;68.80;;;;;;5102473;28;20468;-75
2022/09/08 09:49:23;;;;;;;35.60;34.07;;;21.60;68.40;;;;;;5093496;28;20462;-74
2022/09/08 09:52:03;;;;;;;31.80;30.30;;;22.00;68.20;;;;;;5108078;28;20487;-74
2022/09/08 09:54:50;;;;;;;32.30;30.83;;;22.30;67.40;;;;;;5104474;28;20522;-74
2022/09/08 09:57:54;;;;;;;35.53;33.93;;;22.60;66.20;;;;;;5102137;27;20490;-75
2022/09/08 10:00:23;;;;;;;34.67;33.07;;;22.70;65.30;;;;;;5106795;28;20543;-73
2022/09/08 10:03:38;;;;;;;41.67;39.70;;;23.00;65.00;;;;;;5103402;28;20559;-72
2022/09/08 10:06:26;;;;;;;40.67;38.87;;;23.10;63.40;;;;;;5090553;28;20456;-75
2022/09/08 10:09:18;;;;;;;39.50;37.43;;;23.10;63.00;;;;;;5096826;28;20465;-74
2022/09/08 10:12:18;;;;;;;33.20;31.80;;;23.40;63.10;;;;;;5102549;28;20825;-76
2022/09/08 10:15:39;;;;;;;37.00;35.30;;;23.90;62.00;;;;;;5051665;28;20926;-72
2022/09/08 10:18:45;;;;;;;34.37;32.87;;;24.10;60.20;;;;;;5098761;27;20503;-74
2022/09/08 10:21:45;;;;;;;36.80;35.10;;;24.30;58.30;;;;;;5106853;28;20551;-73
2022/09/08 10:25:03;;;;;;;36.20;34.60;;;23.90;58.40;;;;;;5107925;28;20815;-72
2022/09/08 10:28:10;;;;;;;34.83;33.37;;;23.80;59.20;;;;;;5101484;28;20484;-72
2022/09/08 10:31:16;;;;;;;53.53;51.30;;;23.90;59.10;;;;;;5080812;28;21017;-73
2022/09/08 10:34:26;;;;;;;38.60;36.90;;;23.90;58.60;;;;;;5046271;28;20458;-72
2022/09/08 10:37:04;;;;;;;39.83;37.83;;;24.00;58.80;;;;;;5104284;28;20452;-71
2022/09/08 10:39:47;;;;;;;33.40;31.80;;;24.20;58.90;;;;;;5099055;28;20456;-72
2022/09/08 10:42:43;;;;;;;32.57;31.20;;;24.20;58.50;;;;;;5103961;28;20481;-72
2022/09/08 10:45:30;;;;;;;38.77;36.93;;;24.10;58.30;;;;;;5105429;28;20460;-71
2022/09/08 10:48:29;;;;;;;32.53;31.07;;;23.90;58.40;;;;;;5099016;28;21030;-70
2022/09/08 10:51:10;;;;;;;49.93;47.63;;;24.10;58.30;;;;;;5105465;28;20464;-72
2022/09/08 10:54:04;;;;;;;44.70;42.30;;;24.10;58.60;;;;;;5103179;28;20470;-73
2022/09/08 10:56:31;;;;;;;41.47;39.50;;;24.30;58.90;;;;;;5104996;28;20643;-71
2022/09/08 10:59:34;;;;;;;33.10;31.60;;;24.10;57.50;;;;;;5104847;28;20487;-71
2022/09/08 11:02:35;;;;;;;32.87;31.37;;;23.60;58.70;;;;;;5103370;28;20475;-71
2022/09/08 11:05:34;;;;;;;42.03;40.17;;;23.20;60.20;;;;;;5103855;28;20964;-71
2022/09/08 11:08:23;;;;;;;32.30;30.80;;;22.70;61.70;;;;;;5102291;28;20475;-69
2022/09/08 11:11:25;;;;;;;42.20;40.20;;;22.30;63.00;;;;;;5102387;28;20469;-70
2022/09/08 11:14:01;;;;;;;35.00;33.37;;;22.40;63.30;;;;;;5094248;28;20448;-70
2022/09/08 11:16:59;;;;;;;36.80;35.00;;;22.60;62.90;;;;;;5107039;28;20543;-72
2022/09/08 11:19:38;;;;;;;31.40;30.10;;;23.00;61.60;;;;;;5082136;28;20874;-70
2022/09/08 11:22:47;;;;;;;30.97;29.67;;;23.30;61.00;;;;;;5102121;28;20896;-71
2022/09/08 11:25:32;;;;;;;39.87;37.97;;;23.20;60.30;;;;;;5105611;27;20455;-72
2022/09/08 11:28:13;;;;;;;32.30;30.73;;;23.40;60.90;;;;;;5106943;28;20539;-71
2022/09/08 11:30:52;;;;;;;45.33;43.23;;;23.60;59.40;;;;;;5108478;27;20494;-71
2022/09/08 11:33:39;;;;;;;38.10;36.33;;;23.80;59.10;;;;;;5099697;27;21298;-71
2022/09/08 11:36:18;;;;;;;32.80;31.30;;;24.00;58.30;;;;;;5107290;28;20456;-69
2022/09/08 11:38:57;;;;;;;36.80;35.10;;;24.20;58.10;;;;;;5107392;28;20487;-72
2022/09/08 11:42:03;;;;;;;32.57;30.73;;;24.30;59.80;;;;;;5102413;27;20466;-71
2022/09/08 11:44:46;;;;;;;36.03;34.43;;;24.20;60.80;;;;;;5104334;28;20487;-71
2022/09/08 11:47:37;;;;;;;42.13;40.10;;;23.60;61.20;;;;;;5104642;28;20456;-69
2022/09/08 11:50:19;;;;;;;32.27;30.77;;;23.00;62.50;;;;;;5108356;28;21074;-69
2022/09/08 11:53:12;;;;;;;35.70;33.97;;;22.60;63.90;;;;;;5106017;27;20573;-72
2022/09/08 11:55:57;;;;;;;39.80;38.00;;;22.50;64.20;;;;;;5106466;28;20463;-72
2022/09/08 11:58:36;;;;;;;35.30;33.53;;;22.50;64.30;;;;;;5104122;28;20477;-72
2022/09/08 12:01:39;;;;;;;50.07;47.60;;;22.70;64.00;;;;;;5106382;27;20949;-71
2022/09/08 12:04:21;;;;;;;31.97;30.43;;;23.00;61.80;;;;;;5101767;28;20455;-72
2022/09/08 12:07:21;;;;;;;38.07;36.40;;;23.20;60.80;;;;;;5104926;27;20459;-73
2022/09/08 12:10:11;;;;;;;33.30;31.80;;;23.30;60.30;;;;;;5102595;27;20456;-73
2022/09/08 12:12:51;;;;;;;30.10;28.70;;;23.30;60.20;;;;;;5105475;28;20583;-73
2022/09/08 12:15:39;;;;;;;34.30;32.80;;;23.50;60.40;;;;;;5106542;28;20495;-74
2022/09/08 12:18:21;;;;;;;31.30;29.80;;;23.70;59.80;;;;;;5098535;28;20486;-74
2022/09/08 12:21:05;;;;;;;44.23;42.03;;;23.90;58.90;;;;;;5101379;28;20452;-73
2022/09/08 12:23:42;;;;;;;33.53;31.83;;;24.20;58.30;;;;;;5104231;28;20484;-74
2022/09/08 12:26:33;;;;;;;39.03;36.83;;;24.30;57.60;;;;;;5110248;28;20546;-80
2022/09/08 12:29:25;;;;;;;34.77;32.97;;;24.20;57.30;;;;;;5098539;27;20462;-75
2022/09/08 12:32:19;;;;;;;31.73;30.33;;;24.20;58.00;;;;;;5103091;27;20556;-77
2022/09/08 12:35:17;;;;;;;33.60;31.63;;;24.30;58.30;;;;;;5107492;28;20460;-77
2022/09/08 12:37:52;;;;;;;34.07;32.57;;;24.50;59.00;;;;;;5102106;27;20482;-76
2022/09/08 12:41:05;;;;;;;35.90;34.37;;;24.50;59.50;;;;;;5106773;28;20456;-77
2022/09/08 12:43:40;;;;;;;34.97;33.43;;;24.60;59.20;;;;;;5106620;27;20506;-79
2022/09/08 12:46:29;;;;;;;36.03;34.37;;;24.80;59.40;;;;;;5103387;28;20451;-77
2022/09/08 12:49:29;;;;;;;44.93;42.83;;;25.20;59.10;;;;;;5105740;28;20505;-76
2022/09/08 12:52:02;;;;;;;37.90;36.10;;;25.50;58.10;;;;;;5106693;27;20490;-75
2022/09/08 12:54:39;;;;;;;32.37;30.93;;;25.50;57.10;;;;;;5105641;28;20590;-76
2022/09/08 12:57:38;;;;;;;34.30;32.30;;;25.50;56.50;;;;;;5101617;28;20840;-74
2022/09/08 13:00:12;;;;;;;32.33;30.73;;;25.50;56.20;;;;;;5105784;28;20455;-74
2022/09/08 13:03:04;;;;;;;43.53;41.20;;;25.40;55.70;;;;;;5102085;28;20483;-73
2022/09/08 13:05:55;;;;;;;30.50;29.20;;;25.20;56.60;;;;;;5099223;28;20495;-71
2022/09/08 13:08:38;;;;;;;41.13;39.10;;;25.20;55.70;;;;;;5098880;28;20460;-72
2022/09/08 13:11:09;;;;;;;45.80;43.63;;;25.30;55.40;;;;;;5096485;28;20969;-74
2022/09/08 13:13:39;;;;;;;38.60;36.70;;;25.30;54.70;;;;;;5102671;28;20533;-71
2022/09/08 13:16:23;;;;;;;32.60;31.10;;;25.30;54.50;;;;;;5107438;28;20468;-71
2022/09/08 13:19:01;;;;;;;32.37;30.90;;;25.40;54.80;;;;;;5092726;28;20472;-69
2022/09/08 13:21:44;;;;;;;41.40;39.30;;;25.60;53.60;;;;;;5099766;27;20456;-71
2022/09/08 13:24:20;;;;;;;40.03;38.00;;;25.60;53.10;;;;;;5103972;27;20969;-71
2022/09/08 13:26:59;;;;;;;34.83;33.10;;;25.60;53.50;;;;;;5107949;28;21021;-72
2022/09/08 13:29:44;;;;;;;43.00;40.90;;;25.50;53.30;;;;;;5104870;28;20475;-72
2022/09/08 13:32:24;;;;;;;36.67;34.63;;;25.40;53.50;;;;;;5102197;28;20481;-73
2022/09/08 13:35:03;;;;;;;33.03;31.53;;;25.50;53.80;;;;;;5102153;28;20452;-72